sensor_id;sensor_type;location;lat;lon;timestamp;P1;durP1;ratioP1;P2;durP2;ratioP2
8488;SDS011;4281;45.772;12.852;2022-08-19T00:02:02;6.60;;;2.70;;
8488;SDS011;4281;45.772;12.852;2022-08-19T00:04:31;5.63;;;2.70;;
8488;SDS011;4281;45.772;12.852;2022-08-19T00:07:04;6.70;;;2.83;;
8488;SDS011;4281;45.772;12.852;2022-08-19T00:09:33;6.70;;;3.10;;
8488;SDS011;4281;45.772;12.852;2022-08-19T00:14:34;7.50;;;2.70;;
8488;SDS011;4281;45.772;12.852;2022-08-19T00:17:03;7.27;;;2.63;;
8488;SDS011;4281;45.772;12.852;2022-08-19T00:19:32;6.03;;;2.60;;
8488;SDS011;4281;45.772;12.852;2022-08-19T00:22:01;7.70;;;2.87;;
8488;SDS011;4281;45.772;12.852;2022-08-19T00:24:31;6.27;;;3.00;;
8488;SDS011;4281;45.772;12.852;2022-08-19T00:27:00;7.07;;;2.87;;
8488;SDS011;4281;45.772;12.852;2022-08-19T00:29:52;7.20;;;3.20;;
8488;SDS011;4281;45.772;12.852;2022-08-19T00:32:21;7.07;;;2.97;;
8488;SDS011;4281;45.772;12.852;2022-08-19T00:34:52;8.07;;;3.07;;
8488;SDS011;4281;45.772;12.852;2022-08-19T00:37:21;7.43;;;2.70;;
8488;SDS011;4281;45.772;12.852;2022-08-19T00:39:52;9.20;;;2.60;;
8488;SDS011;4281;45.772;12.852;2022-08-19T00:42:22;5.77;;;2.93;;
8488;SDS011;4281;45.772;12.852;2022-08-19T00:44:56;6.83;;;2.93;;
8488;SDS011;4281;45.772;12.852;2022-08-19T00:47:24;6.07;;;2.93;;
8488;SDS011;4281;45.772;12.852;2022-08-19T00:49:53;7.33;;;3.23;;
8488;SDS011;4281;45.772;12.852;2022-08-19T00:52:26;6.30;;;2.97;;
8488;SDS011;4281;45.772;12.852;2022-08-19T00:54:56;6.60;;;3.10;;
8488;SDS011;4281;45.772;12.852;2022-08-19T00:57:26;7.47;;;3.20;;
8488;SDS011;4281;45.772;12.852;2022-08-19T00:59:59;8.73;;;3.03;;
8488;SDS011;4281;45.772;12.852;2022-08-19T01:02:29;8.27;;;3.37;;
8488;SDS011;4281;45.772;12.852;2022-08-19T01:05:00;6.73;;;3.20;;
8488;SDS011;4281;45.772;12.852;2022-08-19T01:07:32;8.03;;;3.33;;
8488;SDS011;4281;45.772;12.852;2022-08-19T01:10:04;7.90;;;3.37;;
8488;SDS011;4281;45.772;12.852;2022-08-19T01:12:34;8.67;;;3.67;;
8488;SDS011;4281;45.772;12.852;2022-08-19T01:15:07;6.53;;;3.57;;
8488;SDS011;4281;45.772;12.852;2022-08-19T01:17:38;9.97;;;3.53;;
8488;SDS011;4281;45.772;12.852;2022-08-19T01:20:09;9.63;;;3.43;;
8488;SDS011;4281;45.772;12.852;2022-08-19T01:22:42;7.27;;;3.40;;
8488;SDS011;4281;45.772;12.852;2022-08-19T01:25:14;6.43;;;3.37;;
8488;SDS011;4281;45.772;12.852;2022-08-19T01:27:46;8.67;;;3.00;;
8488;SDS011;4281;45.772;12.852;2022-08-19T01:30:20;7.97;;;3.63;;
8488;SDS011;4281;45.772;12.852;2022-08-19T01:32:51;8.47;;;3.33;;
8488;SDS011;4281;45.772;12.852;2022-08-19T01:35:21;6.70;;;3.23;;
8488;SDS011;4281;45.772;12.852;2022-08-19T01:37:53;7.47;;;3.43;;
8488;SDS011;4281;45.772;12.852;2022-08-19T01:40:25;7.70;;;3.70;;
8488;SDS011;4281;45.772;12.852;2022-08-19T01:42:55;10.10;;;3.73;;
8488;SDS011;4281;45.772;12.852;2022-08-19T01:45:25;10.13;;;3.43;;
8488;SDS011;4281;45.772;12.852;2022-08-19T01:47:55;8.87;;;3.93;;
8488;SDS011;4281;45.772;12.852;2022-08-19T01:50:28;8.13;;;3.77;;
8488;SDS011;4281;45.772;12.852;2022-08-19T01:52:59;8.73;;;3.80;;
8488;SDS011;4281;45.772;12.852;2022-08-19T01:55:33;10.07;;;3.73;;
8488;SDS011;4281;45.772;12.852;2022-08-19T01:58:06;9.33;;;4.23;;
8488;SDS011;4281;45.772;12.852;2022-08-19T02:00:37;7.23;;;3.93;;
8488;SDS011;4281;45.772;12.852;2022-08-19T02:03:06;7.00;;;3.80;;
8488;SDS011;4281;45.772;12.852;2022-08-19T02:05:35;8.70;;;3.73;;
8488;SDS011;4281;45.772;12.852;2022-08-19T02:08:05;6.73;;;4.10;;
8488;SDS011;4281;45.772;12.852;2022-08-19T02:10:37;11.87;;;4.50;;
8488;SDS011;4281;45.772;12.852;2022-08-19T02:13:07;8.67;;;4.30;;
8488;SDS011;4281;45.772;12.852;2022-08-19T02:15:36;7.37;;;3.40;;
8488;SDS011;4281;45.772;12.852;2022-08-19T02:18:05;6.97;;;3.10;;
8488;SDS011;4281;45.772;12.852;2022-08-19T02:20:36;6.37;;;2.80;;
8488;SDS011;4281;45.772;12.852;2022-08-19T02:23:08;7.50;;;3.00;;
8488;SDS011;4281;45.772;12.852;2022-08-19T02:25:41;6.87;;;2.87;;
8488;SDS011;4281;45.772;12.852;2022-08-19T02:28:10;9.23;;;3.30;;
8488;SDS011;4281;45.772;12.852;2022-08-19T02:30:44;9.23;;;3.70;;
8488;SDS011;4281;45.772;12.852;2022-08-19T02:33:14;8.37;;;2.60;;
8488;SDS011;4281;45.772;12.852;2022-08-19T02:35:44;5.97;;;3.20;;
8488;SDS011;4281;45.772;12.852;2022-08-19T02:38:15;7.77;;;3.10;;
8488;SDS011;4281;45.772;12.852;2022-08-19T02:40:53;11.67;;;3.03;;
8488;SDS011;4281;45.772;12.852;2022-08-19T02:43:23;6.40;;;3.10;;
8488;SDS011;4281;45.772;12.852;2022-08-19T02:45:52;7.40;;;2.83;;
8488;SDS011;4281;45.772;12.852;2022-08-19T02:48:22;7.23;;;2.80;;
8488;SDS011;4281;45.772;12.852;2022-08-19T02:50:51;8.63;;;3.07;;
8488;SDS011;4281;45.772;12.852;2022-08-19T02:53:24;6.07;;;3.23;;
8488;SDS011;4281;45.772;12.852;2022-08-19T02:55:54;8.67;;;3.40;;
8488;SDS011;4281;45.772;12.852;2022-08-19T02:58:23;7.17;;;2.70;;
8488;SDS011;4281;45.772;12.852;2022-08-19T03:00:55;5.10;;;2.60;;
8488;SDS011;4281;45.772;12.852;2022-08-19T03:03:24;8.63;;;2.70;;
8488;SDS011;4281;45.772;12.852;2022-08-19T03:06:01;8.33;;;2.67;;
8488;SDS011;4281;45.772;12.852;2022-08-19T03:08:32;4.30;;;2.60;;
8488;SDS011;4281;45.772;12.852;2022-08-19T03:11:01;5.53;;;2.30;;
8488;SDS011;4281;45.772;12.852;2022-08-19T03:13:30;7.27;;;2.77;;
8488;SDS011;4281;45.772;12.852;2022-08-19T03:15:59;4.80;;;2.50;;
8488;SDS011;4281;45.772;12.852;2022-08-19T03:18:31;7.20;;;2.63;;
8488;SDS011;4281;45.772;12.852;2022-08-19T03:21:00;7.57;;;3.00;;
8488;SDS011;4281;45.772;12.852;2022-08-19T03:23:29;5.80;;;2.57;;
8488;SDS011;4281;45.772;12.852;2022-08-19T03:25:58;6.37;;;2.70;;
8488;SDS011;4281;45.772;12.852;2022-08-19T03:28:42;6.23;;;2.77;;
8488;SDS011;4281;45.772;12.852;2022-08-19T03:31:24;6.70;;;2.67;;
8488;SDS011;4281;45.772;12.852;2022-08-19T03:34:11;4.43;;;2.40;;
8488;SDS011;4281;45.772;12.852;2022-08-19T03:36:41;4.73;;;2.10;;
8488;SDS011;4281;45.772;12.852;2022-08-19T03:39:09;6.93;;;2.63;;
8488;SDS011;4281;45.772;12.852;2022-08-19T03:41:41;4.53;;;2.27;;
8488;SDS011;4281;45.772;12.852;2022-08-19T03:44:14;4.70;;;2.00;;
8488;SDS011;4281;45.772;12.852;2022-08-19T03:46:45;7.57;;;3.00;;
8488;SDS011;4281;45.772;12.852;2022-08-19T03:49:14;7.90;;;2.70;;
8488;SDS011;4281;45.772;12.852;2022-08-19T03:51:45;5.13;;;2.63;;
8488;SDS011;4281;45.772;12.852;2022-08-19T03:54:15;4.60;;;2.03;;
8488;SDS011;4281;45.772;12.852;2022-08-19T03:56:47;5.17;;;2.00;;
8488;SDS011;4281;45.772;12.852;2022-08-19T03:59:19;6.20;;;2.13;;
8488;SDS011;4281;45.772;12.852;2022-08-19T04:01:52;6.90;;;2.00;;
8488;SDS011;4281;45.772;12.852;2022-08-19T04:04:21;5.40;;;1.70;;
8488;SDS011;4281;45.772;12.852;2022-08-19T04:06:54;5.40;;;1.80;;
8488;SDS011;4281;45.772;12.852;2022-08-19T04:09:23;3.87;;;1.70;;
8488;SDS011;4281;45.772;12.852;2022-08-19T04:11:55;6.10;;;1.97;;
8488;SDS011;4281;45.772;12.852;2022-08-19T04:14:26;5.47;;;2.00;;
8488;SDS011;4281;45.772;12.852;2022-08-19T04:16:57;3.47;;;1.70;;
8488;SDS011;4281;45.772;12.852;2022-08-19T04:19:26;4.17;;;1.50;;
8488;SDS011;4281;45.772;12.852;2022-08-19T04:21:57;6.93;;;2.23;;
8488;SDS011;4281;45.772;12.852;2022-08-19T04:24:26;4.43;;;1.83;;
8488;SDS011;4281;45.772;12.852;2022-08-19T04:26:56;3.63;;;1.70;;
8488;SDS011;4281;45.772;12.852;2022-08-19T04:29:26;3.07;;;1.50;;
8488;SDS011;4281;45.772;12.852;2022-08-19T04:31:56;3.33;;;1.37;;
8488;SDS011;4281;45.772;12.852;2022-08-19T04:34:35;3.97;;;1.60;;
8488;SDS011;4281;45.772;12.852;2022-08-19T04:37:24;5.27;;;1.37;;
8488;SDS011;4281;45.772;12.852;2022-08-19T04:40:00;4.67;;;1.20;;
8488;SDS011;4281;45.772;12.852;2022-08-19T04:42:47;3.97;;;1.40;;
8488;SDS011;4281;45.772;12.852;2022-08-19T04:45:15;5.53;;;1.27;;
8488;SDS011;4281;45.772;12.852;2022-08-19T04:47:44;5.43;;;1.30;;
8488;SDS011;4281;45.772;12.852;2022-08-19T04:50:24;2.57;;;1.10;;
8488;SDS011;4281;45.772;12.852;2022-08-19T04:52:53;2.40;;;1.00;;
8488;SDS011;4281;45.772;12.852;2022-08-19T04:55:22;2.20;;;1.10;;
8488;SDS011;4281;45.772;12.852;2022-08-19T04:57:54;2.67;;;1.03;;
8488;SDS011;4281;45.772;12.852;2022-08-19T05:00:22;2.47;;;1.10;;
8488;SDS011;4281;45.772;12.852;2022-08-19T05:02:51;2.07;;;1.03;;
8488;SDS011;4281;45.772;12.852;2022-08-19T05:05:20;3.30;;;1.10;;
8488;SDS011;4281;45.772;12.852;2022-08-19T05:07:48;5.63;;;1.20;;
8488;SDS011;4281;45.772;12.852;2022-08-19T05:10:16;4.93;;;1.40;;
8488;SDS011;4281;45.772;12.852;2022-08-19T05:12:45;5.13;;;1.47;;
8488;SDS011;4281;45.772;12.852;2022-08-19T05:15:15;4.87;;;1.30;;
8488;SDS011;4281;45.772;12.852;2022-08-19T05:17:45;3.97;;;1.50;;
8488;SDS011;4281;45.772;12.852;2022-08-19T05:20:27;4.57;;;1.60;;
8488;SDS011;4281;45.772;12.852;2022-08-19T05:23:13;3.00;;;1.30;;
8488;SDS011;4281;45.772;12.852;2022-08-19T05:25:48;3.07;;;1.23;;
8488;SDS011;4281;45.772;12.852;2022-08-19T05:28:18;3.03;;;1.30;;
8488;SDS011;4281;45.772;12.852;2022-08-19T05:30:48;4.20;;;1.57;;
8488;SDS011;4281;45.772;12.852;2022-08-19T05:33:17;2.23;;;1.17;;
8488;SDS011;4281;45.772;12.852;2022-08-19T05:35:45;6.37;;;1.67;;
8488;SDS011;4281;45.772;12.852;2022-08-19T05:38:15;5.70;;;1.30;;
8488;SDS011;4281;45.772;12.852;2022-08-19T05:40:44;2.70;;;1.40;;
8488;SDS011;4281;45.772;12.852;2022-08-19T05:43:14;4.50;;;1.63;;
8488;SDS011;4281;45.772;12.852;2022-08-19T05:45:43;3.47;;;1.20;;
8488;SDS011;4281;45.772;12.852;2022-08-19T05:48:13;4.13;;;1.70;;
8488;SDS011;4281;45.772;12.852;2022-08-19T05:50:43;2.93;;;1.60;;
8488;SDS011;4281;45.772;12.852;2022-08-19T05:53:12;3.60;;;1.53;;
8488;SDS011;4281;45.772;12.852;2022-08-19T05:55:42;4.60;;;1.60;;
8488;SDS011;4281;45.772;12.852;2022-08-19T05:58:11;3.43;;;1.40;;
8488;SDS011;4281;45.772;12.852;2022-08-19T06:00:39;4.33;;;1.27;;
8488;SDS011;4281;45.772;12.852;2022-08-19T06:03:10;3.50;;;1.40;;
8488;SDS011;4281;45.772;12.852;2022-08-19T06:05:41;3.87;;;1.30;;
8488;SDS011;4281;45.772;12.852;2022-08-19T06:08:17;2.60;;;1.30;;
8488;SDS011;4281;45.772;12.852;2022-08-19T06:13:45;3.20;;;1.20;;
8488;SDS011;4281;45.772;12.852;2022-08-19T06:16:25;5.77;;;1.60;;
8488;SDS011;4281;45.772;12.852;2022-08-19T06:18:54;4.77;;;1.33;;
8488;SDS011;4281;45.772;12.852;2022-08-19T06:21:26;3.53;;;1.37;;
8488;SDS011;4281;45.772;12.852;2022-08-19T06:23:56;2.87;;;1.43;;
8488;SDS011;4281;45.772;12.852;2022-08-19T06:26:26;5.60;;;1.60;;
8488;SDS011;4281;45.772;12.852;2022-08-19T06:28:54;4.27;;;1.70;;
8488;SDS011;4281;45.772;12.852;2022-08-19T06:31:24;2.53;;;1.30;;
8488;SDS011;4281;45.772;12.852;2022-08-19T06:33:54;4.73;;;1.20;;
8488;SDS011;4281;45.772;12.852;2022-08-19T06:36:27;3.60;;;1.37;;
8488;SDS011;4281;45.772;12.852;2022-08-19T06:39:00;3.97;;;1.50;;
8488;SDS011;4281;45.772;12.852;2022-08-19T06:41:30;4.87;;;1.53;;
8488;SDS011;4281;45.772;12.852;2022-08-19T06:44:06;4.20;;;1.30;;
8488;SDS011;4281;45.772;12.852;2022-08-19T06:46:38;5.07;;;1.60;;
8488;SDS011;4281;45.772;12.852;2022-08-19T06:49:08;5.43;;;1.30;;
8488;SDS011;4281;45.772;12.852;2022-08-19T06:51:42;2.43;;;1.27;;
8488;SDS011;4281;45.772;12.852;2022-08-19T06:54:14;4.90;;;1.73;;
8488;SDS011;4281;45.772;12.852;2022-08-19T06:56:45;4.57;;;1.50;;
8488;SDS011;4281;45.772;12.852;2022-08-19T06:59:14;2.60;;;1.30;;
8488;SDS011;4281;45.772;12.852;2022-08-19T07:01:46;3.10;;;1.30;;
8488;SDS011;4281;45.772;12.852;2022-08-19T07:04:17;3.10;;;1.27;;
8488;SDS011;4281;45.772;12.852;2022-08-19T07:06:49;3.53;;;1.50;;
8488;SDS011;4281;45.772;12.852;2022-08-19T07:09:20;2.93;;;1.40;;
8488;SDS011;4281;45.772;12.852;2022-08-19T07:11:50;3.17;;;1.10;;
8488;SDS011;4281;45.772;12.852;2022-08-19T07:14:20;3.90;;;1.30;;
8488;SDS011;4281;45.772;12.852;2022-08-19T07:16:52;5.40;;;1.27;;
8488;SDS011;4281;45.772;12.852;2022-08-19T07:19:22;2.80;;;1.20;;
8488;SDS011;4281;45.772;12.852;2022-08-19T07:21:54;2.77;;;1.30;;
8488;SDS011;4281;45.772;12.852;2022-08-19T07:24:23;3.50;;;1.30;;
8488;SDS011;4281;45.772;12.852;2022-08-19T07:26:59;3.27;;;1.37;;
8488;SDS011;4281;45.772;12.852;2022-08-19T07:29:40;3.07;;;1.20;;
8488;SDS011;4281;45.772;12.852;2022-08-19T07:32:09;2.90;;;1.10;;
8488;SDS011;4281;45.772;12.852;2022-08-19T07:34:39;3.07;;;1.20;;
8488;SDS011;4281;45.772;12.852;2022-08-19T07:37:09;4.20;;;1.30;;
8488;SDS011;4281;45.772;12.852;2022-08-19T07:39:38;4.33;;;1.50;;
8488;SDS011;4281;45.772;12.852;2022-08-19T07:42:07;3.53;;;1.53;;
8488;SDS011;4281;45.772;12.852;2022-08-19T07:44:39;4.03;;;1.57;;
8488;SDS011;4281;45.772;12.852;2022-08-19T07:47:16;4.73;;;1.47;;
8488;SDS011;4281;45.772;12.852;2022-08-19T07:50:05;3.53;;;1.37;;
8488;SDS011;4281;45.772;12.852;2022-08-19T07:52:37;3.00;;;1.50;;
8488;SDS011;4281;45.772;12.852;2022-08-19T07:55:07;2.23;;;1.27;;
8488;SDS011;4281;45.772;12.852;2022-08-19T07:57:57;3.83;;;1.33;;
8488;SDS011;4281;45.772;12.852;2022-08-19T08:00:28;3.33;;;1.20;;
8488;SDS011;4281;45.772;12.852;2022-08-19T08:02:56;3.07;;;1.10;;
8488;SDS011;4281;45.772;12.852;2022-08-19T08:05:25;3.03;;;1.10;;
8488;SDS011;4281;45.772;12.852;2022-08-19T08:08:12;3.80;;;1.50;;
8488;SDS011;4281;45.772;12.852;2022-08-19T08:11:14;5.10;;;1.47;;
8488;SDS011;4281;45.772;12.852;2022-08-19T08:13:45;4.83;;;1.17;;
8488;SDS011;4281;45.772;12.852;2022-08-19T08:16:29;3.53;;;1.53;;
8488;SDS011;4281;45.772;12.852;2022-08-19T08:19:00;2.27;;;1.40;;
8488;SDS011;4281;45.772;12.852;2022-08-19T08:21:32;2.27;;;1.40;;
8488;SDS011;4281;45.772;12.852;2022-08-19T08:24:03;4.70;;;1.30;;
8488;SDS011;4281;45.772;12.852;2022-08-19T08:26:31;2.53;;;1.43;;
8488;SDS011;4281;45.772;12.852;2022-08-19T08:29:00;2.43;;;1.20;;
8488;SDS011;4281;45.772;12.852;2022-08-19T08:31:37;3.70;;;1.43;;
8488;SDS011;4281;45.772;12.852;2022-08-19T08:34:07;4.07;;;1.50;;
8488;SDS011;4281;45.772;12.852;2022-08-19T08:36:36;2.77;;;1.30;;
8488;SDS011;4281;45.772;12.852;2022-08-19T08:39:09;2.77;;;1.50;;
8488;SDS011;4281;45.772;12.852;2022-08-19T08:41:40;4.47;;;1.50;;
8488;SDS011;4281;45.772;12.852;2022-08-19T08:44:15;1.90;;;1.20;;
8488;SDS011;4281;45.772;12.852;2022-08-19T08:46:49;4.27;;;1.10;;
8488;SDS011;4281;45.772;12.852;2022-08-19T08:49:29;2.27;;;1.13;;
8488;SDS011;4281;45.772;12.852;2022-08-19T08:52:04;2.20;;;1.17;;
8488;SDS011;4281;45.772;12.852;2022-08-19T08:54:37;3.23;;;1.03;;
8488;SDS011;4281;45.772;12.852;2022-08-19T08:57:24;2.13;;;1.00;;
8488;SDS011;4281;45.772;12.852;2022-08-19T09:00:07;3.33;;;1.30;;
8488;SDS011;4281;45.772;12.852;2022-08-19T09:02:41;4.80;;;1.13;;
8488;SDS011;4281;45.772;12.852;2022-08-19T09:05:16;3.77;;;2.00;;
8488;SDS011;4281;45.772;12.852;2022-08-19T09:07:53;2.97;;;1.43;;
8488;SDS011;4281;45.772;12.852;2022-08-19T09:10:31;1.77;;;1.00;;
8488;SDS011;4281;45.772;12.852;2022-08-19T09:13:13;2.10;;;1.00;;
8488;SDS011;4281;45.772;12.852;2022-08-19T09:15:47;2.10;;;1.10;;
8488;SDS011;4281;45.772;12.852;2022-08-19T09:18:20;3.57;;;1.20;;
8488;SDS011;4281;45.772;12.852;2022-08-19T09:20:48;2.73;;;1.40;;
8488;SDS011;4281;45.772;12.852;2022-08-19T09:23:17;2.10;;;1.00;;
8488;SDS011;4281;45.772;12.852;2022-08-19T09:25:53;3.23;;;1.10;;
8488;SDS011;4281;45.772;12.852;2022-08-19T09:28:23;5.23;;;1.30;;
8488;SDS011;4281;45.772;12.852;2022-08-19T09:30:52;5.10;;;1.13;;
8488;SDS011;4281;45.772;12.852;2022-08-19T09:33:21;2.83;;;1.00;;
8488;SDS011;4281;45.772;12.852;2022-08-19T09:35:49;2.10;;;1.07;;
8488;SDS011;4281;45.772;12.852;2022-08-19T09:38:19;2.00;;;1.30;;
8488;SDS011;4281;45.772;12.852;2022-08-19T09:40:48;2.50;;;1.00;;
8488;SDS011;4281;45.772;12.852;2022-08-19T09:43:18;1.47;;;1.17;;
8488;SDS011;4281;45.772;12.852;2022-08-19T09:45:59;2.20;;;1.20;;
8488;SDS011;4281;45.772;12.852;2022-08-19T09:48:28;2.27;;;1.10;;
8488;SDS011;4281;45.772;12.852;2022-08-19T09:51:01;5.30;;;1.20;;
8488;SDS011;4281;45.772;12.852;2022-08-19T09:53:31;3.27;;;1.20;;
8488;SDS011;4281;45.772;12.852;2022-08-19T09:56:02;2.30;;;1.10;;
8488;SDS011;4281;45.772;12.852;2022-08-19T09:58:36;2.10;;;1.17;;
8488;SDS011;4281;45.772;12.852;2022-08-19T10:01:05;3.63;;;1.23;;
8488;SDS011;4281;45.772;12.852;2022-08-19T10:03:35;2.00;;;1.20;;
8488;SDS011;4281;45.772;12.852;2022-08-19T10:06:05;3.10;;;1.13;;
8488;SDS011;4281;45.772;12.852;2022-08-19T10:08:42;4.20;;;1.17;;
8488;SDS011;4281;45.772;12.852;2022-08-19T10:11:15;2.27;;;1.10;;
8488;SDS011;4281;45.772;12.852;2022-08-19T10:14:01;2.20;;;1.20;;
8488;SDS011;4281;45.772;12.852;2022-08-19T10:16:32;2.73;;;1.00;;
8488;SDS011;4281;45.772;12.852;2022-08-19T10:19:05;3.47;;;1.30;;
8488;SDS011;4281;45.772;12.852;2022-08-19T10:21:33;3.33;;;1.20;;
8488;SDS011;4281;45.772;12.852;2022-08-19T10:24:04;2.57;;;0.90;;
8488;SDS011;4281;45.772;12.852;2022-08-19T10:26:36;3.23;;;1.30;;
8488;SDS011;4281;45.772;12.852;2022-08-19T10:29:09;3.37;;;1.10;;
8488;SDS011;4281;45.772;12.852;2022-08-19T10:31:57;3.50;;;1.20;;
8488;SDS011;4281;45.772;12.852;2022-08-19T10:34:28;1.93;;;1.10;;
8488;SDS011;4281;45.772;12.852;2022-08-19T10:36:58;4.33;;;1.13;;
8488;SDS011;4281;45.772;12.852;2022-08-19T10:39:28;2.10;;;1.00;;
8488;SDS011;4281;45.772;12.852;2022-08-19T10:42:09;3.03;;;1.33;;
8488;SDS011;4281;45.772;12.852;2022-08-19T10:44:41;4.73;;;1.43;;
8488;SDS011;4281;45.772;12.852;2022-08-19T10:47:10;4.23;;;1.43;;
8488;SDS011;4281;45.772;12.852;2022-08-19T10:49:51;2.30;;;1.30;;
8488;SDS011;4281;45.772;12.852;2022-08-19T10:52:38;3.60;;;1.27;;
8488;SDS011;4281;45.772;12.852;2022-08-19T10:55:15;3.47;;;1.33;;
8488;SDS011;4281;45.772;12.852;2022-08-19T10:58:03;1.63;;;1.17;;
8488;SDS011;4281;45.772;12.852;2022-08-19T11:00:35;5.53;;;1.87;;
8488;SDS011;4281;45.772;12.852;2022-08-19T11:03:03;4.77;;;1.33;;
8488;SDS011;4281;45.772;12.852;2022-08-19T11:05:35;4.87;;;3.27;;
8488;SDS011;4281;45.772;12.852;2022-08-19T11:08:06;3.50;;;1.50;;
8488;SDS011;4281;45.772;12.852;2022-08-19T11:10:49;3.53;;;1.57;;
8488;SDS011;4281;45.772;12.852;2022-08-19T11:13:20;4.37;;;1.40;;
8488;SDS011;4281;45.772;12.852;2022-08-19T11:15:57;3.00;;;1.60;;
8488;SDS011;4281;45.772;12.852;2022-08-19T11:18:33;4.07;;;1.50;;
8488;SDS011;4281;45.772;12.852;2022-08-19T11:21:05;6.20;;;1.40;;
8488;SDS011;4281;45.772;12.852;2022-08-19T11:23:35;4.30;;;1.43;;
8488;SDS011;4281;45.772;12.852;2022-08-19T11:26:03;7.33;;;1.70;;
8488;SDS011;4281;45.772;12.852;2022-08-19T11:28:32;3.10;;;1.50;;
8488;SDS011;4281;45.772;12.852;2022-08-19T11:31:02;3.50;;;1.40;;
8488;SDS011;4281;45.772;12.852;2022-08-19T11:33:30;4.27;;;1.97;;
8488;SDS011;4281;45.772;12.852;2022-08-19T11:35:59;3.37;;;1.60;;
8488;SDS011;4281;45.772;12.852;2022-08-19T11:38:28;4.37;;;1.70;;
8488;SDS011;4281;45.772;12.852;2022-08-19T11:40:57;4.87;;;1.60;;
8488;SDS011;4281;45.772;12.852;2022-08-19T11:43:29;3.57;;;1.57;;
8488;SDS011;4281;45.772;12.852;2022-08-19T11:46:05;5.03;;;1.53;;
8488;SDS011;4281;45.772;12.852;2022-08-19T11:48:35;4.90;;;1.70;;
8488;SDS011;4281;45.772;12.852;2022-08-19T11:51:04;4.80;;;1.60;;
8488;SDS011;4281;45.772;12.852;2022-08-19T11:53:35;5.77;;;1.93;;
8488;SDS011;4281;45.772;12.852;2022-08-19T11:56:06;3.83;;;1.87;;
8488;SDS011;4281;45.772;12.852;2022-08-19T11:58:36;4.93;;;1.87;;
8488;SDS011;4281;45.772;12.852;2022-08-19T12:01:08;5.87;;;1.77;;
8488;SDS011;4281;45.772;12.852;2022-08-19T12:03:38;5.97;;;2.00;;
8488;SDS011;4281;45.772;12.852;2022-08-19T12:06:08;4.90;;;1.70;;
8488;SDS011;4281;45.772;12.852;2022-08-19T12:08:39;6.10;;;1.80;;
8488;SDS011;4281;45.772;12.852;2022-08-19T12:11:07;4.80;;;1.70;;
8488;SDS011;4281;45.772;12.852;2022-08-19T12:13:36;6.07;;;2.10;;
8488;SDS011;4281;45.772;12.852;2022-08-19T12:16:07;3.63;;;1.70;;
8488;SDS011;4281;45.772;12.852;2022-08-19T12:18:38;5.10;;;1.70;;
8488;SDS011;4281;45.772;12.852;2022-08-19T12:21:07;4.30;;;1.80;;
8488;SDS011;4281;45.772;12.852;2022-08-19T12:23:37;6.23;;;2.00;;
8488;SDS011;4281;45.772;12.852;2022-08-19T12:26:06;6.77;;;1.97;;
8488;SDS011;4281;45.772;12.852;2022-08-19T12:28:36;5.40;;;1.93;;
8488;SDS011;4281;45.772;12.852;2022-08-19T12:31:05;5.47;;;2.00;;
8488;SDS011;4281;45.772;12.852;2022-08-19T12:33:36;3.77;;;2.10;;
8488;SDS011;4281;45.772;12.852;2022-08-19T12:36:05;8.33;;;3.17;;
8488;SDS011;4281;45.772;12.852;2022-08-19T12:38:36;6.70;;;2.20;;
8488;SDS011;4281;45.772;12.852;2022-08-19T12:41:05;7.97;;;2.20;;
8488;SDS011;4281;45.772;12.852;2022-08-19T12:43:36;7.87;;;2.33;;
8488;SDS011;4281;45.772;12.852;2022-08-19T12:46:05;8.97;;;2.50;;
8488;SDS011;4281;45.772;12.852;2022-08-19T12:48:38;6.57;;;2.50;;
8488;SDS011;4281;45.772;12.852;2022-08-19T12:51:08;6.73;;;2.00;;
8488;SDS011;4281;45.772;12.852;2022-08-19T12:53:38;8.00;;;2.40;;
8488;SDS011;4281;45.772;12.852;2022-08-19T12:56:07;6.43;;;2.47;;
8488;SDS011;4281;45.772;12.852;2022-08-19T12:58:38;5.97;;;2.50;;
8488;SDS011;4281;45.772;12.852;2022-08-19T13:01:16;6.50;;;2.60;;
8488;SDS011;4281;45.772;12.852;2022-08-19T13:03:50;8.87;;;2.57;;
8488;SDS011;4281;45.772;12.852;2022-08-19T13:06:19;7.57;;;2.70;;
8488;SDS011;4281;45.772;12.852;2022-08-19T13:08:49;10.67;;;3.03;;
8488;SDS011;4281;45.772;12.852;2022-08-19T13:11:24;5.60;;;2.77;;
8488;SDS011;4281;45.772;12.852;2022-08-19T13:13:53;5.97;;;2.50;;
8488;SDS011;4281;45.772;12.852;2022-08-19T13:16:22;9.30;;;2.70;;
8488;SDS011;4281;45.772;12.852;2022-08-19T13:18:52;8.37;;;2.43;;
8488;SDS011;4281;45.772;12.852;2022-08-19T13:21:23;6.90;;;2.47;;
8488;SDS011;4281;45.772;12.852;2022-08-19T13:23:53;7.60;;;2.57;;
8488;SDS011;4281;45.772;12.852;2022-08-19T13:26:22;9.37;;;2.40;;
8488;SDS011;4281;45.772;12.852;2022-08-19T13:28:51;9.30;;;2.90;;
8488;SDS011;4281;45.772;12.852;2022-08-19T13:31:39;5.87;;;2.60;;
8488;SDS011;4281;45.772;12.852;2022-08-19T13:34:28;7.40;;;2.83;;
8488;SDS011;4281;45.772;12.852;2022-08-19T13:36:58;6.53;;;2.53;;
8488;SDS011;4281;45.772;12.852;2022-08-19T13:39:29;7.70;;;2.53;;
8488;SDS011;4281;45.772;12.852;2022-08-19T13:41:59;5.53;;;2.33;;
8488;SDS011;4281;45.772;12.852;2022-08-19T13:44:28;7.90;;;2.50;;
8488;SDS011;4281;45.772;12.852;2022-08-19T13:46:59;8.17;;;2.57;;
8488;SDS011;4281;45.772;12.852;2022-08-19T13:49:35;6.27;;;2.70;;
8488;SDS011;4281;45.772;12.852;2022-08-19T13:52:04;10.07;;;3.20;;
8488;SDS011;4281;45.772;12.852;2022-08-19T13:54:33;6.90;;;2.40;;
8488;SDS011;4281;45.772;12.852;2022-08-19T13:57:01;8.83;;;2.60;;
8488;SDS011;4281;45.772;12.852;2022-08-19T13:59:30;7.43;;;3.03;;
8488;SDS011;4281;45.772;12.852;2022-08-19T14:01:59;9.53;;;3.00;;
8488;SDS011;4281;45.772;12.852;2022-08-19T14:04:28;7.00;;;2.57;;
8488;SDS011;4281;45.772;12.852;2022-08-19T14:06:58;9.47;;;3.00;;
8488;SDS011;4281;45.772;12.852;2022-08-19T14:09:27;6.07;;;2.40;;
8488;SDS011;4281;45.772;12.852;2022-08-19T14:11:56;7.53;;;2.20;;
8488;SDS011;4281;45.772;12.852;2022-08-19T14:14:24;7.10;;;3.20;;
8488;SDS011;4281;45.772;12.852;2022-08-19T14:16:52;9.10;;;2.67;;
8488;SDS011;4281;45.772;12.852;2022-08-19T14:19:21;5.73;;;2.33;;
8488;SDS011;4281;45.772;12.852;2022-08-19T14:21:55;6.17;;;2.43;;
8488;SDS011;4281;45.772;12.852;2022-08-19T14:24:26;7.47;;;2.80;;
8488;SDS011;4281;45.772;12.852;2022-08-19T14:26:55;5.77;;;2.60;;
8488;SDS011;4281;45.772;12.852;2022-08-19T14:29:25;9.03;;;4.60;;
8488;SDS011;4281;45.772;12.852;2022-08-19T14:31:55;9.67;;;2.93;;
8488;SDS011;4281;45.772;12.852;2022-08-19T14:34:25;5.93;;;3.20;;
8488;SDS011;4281;45.772;12.852;2022-08-19T14:36:54;4.80;;;2.53;;
8488;SDS011;4281;45.772;12.852;2022-08-19T14:39:22;6.07;;;2.03;;
8488;SDS011;4281;45.772;12.852;2022-08-19T14:41:52;5.33;;;2.10;;
8488;SDS011;4281;45.772;12.852;2022-08-19T14:44:20;4.60;;;2.10;;
8488;SDS011;4281;45.772;12.852;2022-08-19T14:46:49;4.00;;;2.10;;
8488;SDS011;4281;45.772;12.852;2022-08-19T14:49:19;6.03;;;2.20;;
8488;SDS011;4281;45.772;12.852;2022-08-19T14:52:01;6.47;;;3.90;;
8488;SDS011;4281;45.772;12.852;2022-08-19T14:54:30;7.50;;;2.00;;
8488;SDS011;4281;45.772;12.852;2022-08-19T14:57:00;6.33;;;2.50;;
8488;SDS011;4281;45.772;12.852;2022-08-19T14:59:28;4.03;;;1.60;;
8488;SDS011;4281;45.772;12.852;2022-08-19T15:01:57;4.53;;;1.87;;
8488;SDS011;4281;45.772;12.852;2022-08-19T15:04:46;6.10;;;1.90;;
8488;SDS011;4281;45.772;12.852;2022-08-19T15:07:23;3.17;;;1.57;;
8488;SDS011;4281;45.772;12.852;2022-08-19T15:09:54;2.77;;;1.30;;
8488;SDS011;4281;45.772;12.852;2022-08-19T15:12:25;2.57;;;1.40;;
8488;SDS011;4281;45.772;12.852;2022-08-19T15:14:53;3.30;;;1.50;;
8488;SDS011;4281;45.772;12.852;2022-08-19T15:17:22;2.73;;;1.50;;
8488;SDS011;4281;45.772;12.852;2022-08-19T15:20:11;3.83;;;1.40;;
8488;SDS011;4281;45.772;12.852;2022-08-19T15:22:45;3.50;;;1.33;;
8488;SDS011;4281;45.772;12.852;2022-08-19T15:25:15;3.47;;;1.50;;
8488;SDS011;4281;45.772;12.852;2022-08-19T15:27:48;5.70;;;1.40;;
8488;SDS011;4281;45.772;12.852;2022-08-19T15:30:18;2.63;;;1.30;;
8488;SDS011;4281;45.772;12.852;2022-08-19T15:32:48;3.50;;;1.37;;
8488;SDS011;4281;45.772;12.852;2022-08-19T15:35:18;2.80;;;1.30;;